createdAt,value
2023-05-21T00:02:21.878Z,2.70
2023-05-21T00:04:51.698Z,3.10
2023-05-21T00:07:20.765Z,3.00
2023-05-21T00:09:49.139Z,3.10
2023-05-21T00:12:17.190Z,3.10
2023-05-21T00:14:45.691Z,3.40
2023-05-21T00:17:13.966Z,2.90
2023-05-21T00:19:42.026Z,3.00
2023-05-21T00:22:10.026Z,3.00
2023-05-21T00:24:38.288Z,3.20
2023-05-21T00:27:06.668Z,2.80
2023-05-21T00:29:34.847Z,3.50
2023-05-21T00:32:04.175Z,3.10
2023-05-21T00:34:32.621Z,3.20
2023-05-21T00:37:02.861Z,2.90
2023-05-21T00:39:31.042Z,3.10
2023-05-21T00:42:00.621Z,3.10
2023-05-21T00:44:34.633Z,3.20
2023-05-21T00:47:03.951Z,3.20
2023-05-21T00:49:32.523Z,3.20
2023-05-21T00:52:01.800Z,3.60
2023-05-21T00:54:30.707Z,3.30
2023-05-21T00:56:59.296Z,2.90
2023-05-21T00:59:27.891Z,2.90
2023-05-21T01:01:57.299Z,3.60
2023-05-21T01:04:26.367Z,3.60
2023-05-21T01:06:56.490Z,3.50
2023-05-21T01:09:26.932Z,3.50
2023-05-21T01:11:56.534Z,3.70
2023-05-21T01:14:25.098Z,3.70
2023-05-21T01:16:54.167Z,3.60
2023-05-21T01:19:24.824Z,3.40
2023-05-21T01:21:59.222Z,3.70
2023-05-21T01:24:27.436Z,3.50
2023-05-21T01:26:55.708Z,3.20
2023-05-21T01:29:23.887Z,4.10
2023-05-21T01:32:04.573Z,4.10
2023-05-21T01:34:56.174Z,3.60
2023-05-21T01:37:36.141Z,3.40
2023-05-21T01:40:32.360Z,3.90
2023-05-21T01:43:03.836Z,4.30
2023-05-21T01:45:33.634Z,4.00
2023-05-21T01:48:03.357Z,4.00
2023-05-21T01:50:32.745Z,4.40
2023-05-21T01:53:06.059Z,3.60
2023-05-21T01:55:34.952Z,4.30
2023-05-21T01:58:03.621Z,4.30
2023-05-21T02:00:32.922Z,3.50
2023-05-21T02:05:30.694Z,3.70
2023-05-21T02:08:01.735Z,3.60
2023-05-21T02:10:30.030Z,3.60
2023-05-21T02:12:59.519Z,3.70
2023-05-21T02:17:56.092Z,4.20
2023-05-21T02:20:24.553Z,3.90
2023-05-21T02:22:52.834Z,3.40
2023-05-21T02:25:21.205Z,3.90
2023-05-21T02:27:53.830Z,4.00
2023-05-21T02:30:22.386Z,3.20
2023-05-21T02:32:51.093Z,3.90
2023-05-21T02:35:19.551Z,3.50
2023-05-21T02:37:48.027Z,3.90
2023-05-21T02:40:16.816Z,4.20
2023-05-21T02:42:45.091Z,4.00
2023-05-21T02:45:15.224Z,3.20
2023-05-21T02:47:44.440Z,3.00
2023-05-21T02:50:15.243Z,3.30
2023-05-21T02:52:47.717Z,3.70
2023-05-21T02:55:15.888Z,3.70
2023-05-21T02:57:44.265Z,3.80
2023-05-21T03:00:13.771Z,4.10
2023-05-21T03:02:43.636Z,4.90
2023-05-21T03:05:12.469Z,3.90
2023-05-21T03:07:42.047Z,3.90
2023-05-21T03:10:11.289Z,3.80
2023-05-21T03:12:39.552Z,4.50
2023-05-21T03:15:08.653Z,4.30
2023-05-21T03:17:36.854Z,3.60
2023-05-21T03:20:05.841Z,4.00
2023-05-21T03:22:35.119Z,4.20
2023-05-21T03:25:03.505Z,3.80
2023-05-21T03:27:32.389Z,4.30
2023-05-21T03:30:01.192Z,3.90
2023-05-21T03:32:29.781Z,3.90
2023-05-21T03:34:58.139Z,4.00
2023-05-21T03:37:26.317Z,4.50
2023-05-21T03:39:54.595Z,4.90
2023-05-21T03:42:22.867Z,4.70
2023-05-21T03:44:53.826Z,5.20
2023-05-21T03:48:02.203Z,3.90
2023-05-21T03:50:31.626Z,4.40
2023-05-21T03:52:59.807Z,4.40
2023-05-21T03:55:27.979Z,5.10
2023-05-21T03:57:57.111Z,4.70
2023-05-21T04:00:25.867Z,4.50
2023-05-21T04:02:54.743Z,5.30
2023-05-21T04:05:23.146Z,5.00
2023-05-21T04:07:51.613Z,4.50
2023-05-21T04:10:19.893Z,4.70
2023-05-21T04:12:52.752Z,4.30
2023-05-21T04:15:21.690Z,4.50
2023-05-21T04:17:50.561Z,4.60
2023-05-21T04:20:19.446Z,5.40
2023-05-21T04:22:47.828Z,4.80
2023-05-21T04:25:16.315Z,5.20
2023-05-21T04:27:47.909Z,4.90
2023-05-21T04:30:16.554Z,5.30
2023-05-21T04:32:46.142Z,4.70
2023-05-21T04:35:15.592Z,5.20
2023-05-21T04:37:46.202Z,5.30
2023-05-21T04:40:18.868Z,5.40
2023-05-21T04:42:48.501Z,5.40
2023-05-21T04:45:18.304Z,4.30
2023-05-21T04:47:48.178Z,5.60
2023-05-21T04:50:16.584Z,4.80
2023-05-21T04:52:45.782Z,4.90
2023-05-21T04:55:14.362Z,5.30
2023-05-21T04:57:42.541Z,4.70
2023-05-21T05:00:12.677Z,4.60
2023-05-21T05:02:43.699Z,4.40
2023-05-21T05:05:12.080Z,5.00
2023-05-21T05:07:40.563Z,3.90
2023-05-21T05:10:09.272Z,4.70
2023-05-21T05:15:07.032Z,4.90
2023-05-21T05:17:35.800Z,4.70
2023-05-21T05:20:05.306Z,4.30
2023-05-21T05:22:33.602Z,4.60
2023-05-21T05:25:01.876Z,4.60
2023-05-21T05:27:30.059Z,4.30
2023-05-21T05:29:58.660Z,4.80
2023-05-21T05:32:26.952Z,4.20
2023-05-21T05:34:56.328Z,4.40
2023-05-21T05:37:24.602Z,4.50
2023-05-21T05:39:53.170Z,4.00
2023-05-21T05:42:21.456Z,4.40
2023-05-21T05:44:49.830Z,4.00
2023-05-21T05:47:18.207Z,4.60
2023-05-21T05:49:46.795Z,4.30
2023-05-21T05:52:15.287Z,3.90
2023-05-21T05:54:43.553Z,3.70
2023-05-21T05:57:11.827Z,3.60
2023-05-21T05:59:40.306Z,4.20
2023-05-21T06:02:08.697Z,4.20
2023-05-21T06:04:36.960Z,3.60
2023-05-21T06:07:05.338Z,4.20
2023-05-21T06:09:33.617Z,3.90
2023-05-21T06:12:01.996Z,4.00
2023-05-21T06:14:30.392Z,3.80
2023-05-21T06:16:58.880Z,4.30
2023-05-21T06:19:27.827Z,3.90
2023-05-21T06:21:56.637Z,4.00
2023-05-21T06:24:24.916Z,4.20
2023-05-21T06:26:53.720Z,3.90
2023-05-21T06:29:22.183Z,4.00
2023-05-21T06:31:50.671Z,3.90
2023-05-21T06:34:18.852Z,3.70
2023-05-21T06:36:47.729Z,4.00
2023-05-21T06:39:15.999Z,3.50
2023-05-21T06:41:44.077Z,3.80
2023-05-21T06:44:25.776Z,3.90
2023-05-21T06:47:15.585Z,3.70
2023-05-21T06:49:45.154Z,4.20
2023-05-21T06:52:13.331Z,3.70
2023-05-21T06:54:42.630Z,4.40
2023-05-21T06:57:11.328Z,3.40
2023-05-21T06:59:39.593Z,3.70
2023-05-21T07:02:07.795Z,4.00
2023-05-21T07:04:36.684Z,3.70
2023-05-21T07:07:05.390Z,3.60
2023-05-21T07:09:34.245Z,3.30
2023-05-21T07:12:02.819Z,4.00
2023-05-21T07:14:31.094Z,3.40
2023-05-21T07:16:59.614Z,3.30
2023-05-21T07:19:28.060Z,3.60
2023-05-21T07:21:57.973Z,3.60
2023-05-21T07:24:27.989Z,3.80
2023-05-21T07:26:56.673Z,3.20
2023-05-21T07:29:25.058Z,3.50
2023-05-21T07:31:53.655Z,3.70
2023-05-21T07:34:22.124Z,3.50
2023-05-21T07:36:50.401Z,3.70
2023-05-21T07:39:18.881Z,2.90
2023-05-21T07:44:16.872Z,3.20
2023-05-21T07:46:46.837Z,3.40
2023-05-21T07:49:17.184Z,3.20
2023-05-21T07:51:46.920Z,3.20
2023-05-21T07:54:16.250Z,3.30
2023-05-21T07:56:44.504Z,3.40
2023-05-21T07:59:18.409Z,3.40
2023-05-21T08:01:47.206Z,3.50
2023-05-21T08:04:15.468Z,3.00
2023-05-21T08:06:44.670Z,3.80
2023-05-21T08:09:13.258Z,3.40
2023-05-21T08:11:42.351Z,8.80
2023-05-21T08:14:11.650Z,5.20
2023-05-21T08:16:40.103Z,3.70
2023-05-21T08:19:08.637Z,5.10
2023-05-21T08:21:37.300Z,4.80
2023-05-21T08:24:06.303Z,4.40
2023-05-21T08:26:34.671Z,3.80
2023-05-21T08:29:03.661Z,3.30
2023-05-21T08:31:32.074Z,3.60
2023-05-21T08:34:00.217Z,3.60
2023-05-21T08:36:38.807Z,3.60
2023-05-21T08:39:13.235Z,3.10
2023-05-21T08:41:49.901Z,3.30
2023-05-21T08:44:23.963Z,3.30
2023-05-21T08:46:55.214Z,3.30
2023-05-21T08:49:27.593Z,3.20
2023-05-21T08:51:58.002Z,3.60
2023-05-21T08:54:28.177Z,3.40
2023-05-21T08:56:58.426Z,3.20
2023-05-21T08:59:27.628Z,3.40
2023-05-21T09:01:57.855Z,3.40
2023-05-21T09:04:32.844Z,3.30
2023-05-21T09:07:03.157Z,2.90
2023-05-21T09:09:55.902Z,2.30
2023-05-21T09:12:25.798Z,2.60
2023-05-21T09:14:54.675Z,3.80
2023-05-21T09:17:28.383Z,3.50
2023-05-21T09:20:12.348Z,3.10
2023-05-21T09:22:44.489Z,2.70
2023-05-21T09:25:15.604Z,2.50
2023-05-21T09:27:44.592Z,3.10
2023-05-21T09:30:15.649Z,3.50
2023-05-21T09:32:46.120Z,3.50
2023-05-21T09:35:15.477Z,2.90
2023-05-21T09:37:47.962Z,2.70
2023-05-21T09:40:23.909Z,3.00
2023-05-21T09:42:54.160Z,3.10
2023-05-21T09:45:23.663Z,3.10
2023-05-21T09:47:54.032Z,2.60
2023-05-21T09:50:28.621Z,3.00
2023-05-21T09:55:26.882Z,2.60
2023-05-21T09:57:55.260Z,3.00
2023-05-21T10:00:27.600Z,3.00
2023-05-21T10:02:57.469Z,4.30
2023-05-21T10:05:28.396Z,3.90
2023-05-21T10:08:04.470Z,2.90
2023-05-21T10:10:33.070Z,2.50
2023-05-21T10:13:07.154Z,2.80
2023-05-21T10:15:39.447Z,2.80
2023-05-21T10:18:10.232Z,6.00
2023-05-21T10:20:39.169Z,5.20
2023-05-21T10:23:08.377Z,3.50
2023-05-21T10:25:37.122Z,2.80
2023-05-21T10:28:07.319Z,2.60
2023-05-21T10:30:37.420Z,3.40
2023-05-21T10:33:06.391Z,2.80
2023-05-21T10:35:36.069Z,2.70
2023-05-21T10:38:05.398Z,2.10
2023-05-21T10:40:36.469Z,2.00
2023-05-21T10:43:14.112Z,2.20
2023-05-21T10:46:19.776Z,3.00
2023-05-21T10:49:17.120Z,2.40
2023-05-21T10:52:09.986Z,2.20
2023-05-21T10:57:45.333Z,1.90
2023-05-21T11:00:16.938Z,2.20
2023-05-21T11:02:46.223Z,2.10
2023-05-21T11:05:14.566Z,2.10
2023-05-21T11:07:57.845Z,2.20
2023-05-21T11:10:40.850Z,2.30
2023-05-21T11:13:16.877Z,2.20
2023-05-21T11:16:01.746Z,2.50
2023-05-21T11:18:36.062Z,2.10
2023-05-21T11:21:28.510Z,2.00
2023-05-21T11:24:08.551Z,2.10
2023-05-21T11:27:04.967Z,3.50
2023-05-21T11:29:44.741Z,2.70
2023-05-21T11:32:15.777Z,1.90
2023-05-21T11:34:48.701Z,2.30
2023-05-21T11:37:32.196Z,2.40
2023-05-21T11:40:19.208Z,2.10
2023-05-21T11:42:51.391Z,2.30
2023-05-21T11:45:21.590Z,2.00
2023-05-21T11:47:51.621Z,2.00
2023-05-21T11:50:20.848Z,2.10
2023-05-21T11:52:50.556Z,2.10
2023-05-21T11:55:26.231Z,2.30
2023-05-21T11:57:55.653Z,2.30
2023-05-21T12:00:24.683Z,1.70
2023-05-21T12:02:54.052Z,1.90
2023-05-21T12:05:23.069Z,2.20
2023-05-21T12:10:24.424Z,1.70
2023-05-21T12:12:56.472Z,2.20
2023-05-21T12:15:26.904Z,2.00
2023-05-21T12:17:56.346Z,2.10
2023-05-21T12:20:27.151Z,2.10
2023-05-21T12:22:56.804Z,2.40
2023-05-21T12:25:25.455Z,2.10
2023-05-21T12:27:58.232Z,2.30
2023-05-21T12:30:27.333Z,1.80
2023-05-21T12:32:58.677Z,1.80
2023-05-21T12:35:27.218Z,2.00
2023-05-21T12:37:56.751Z,1.60
2023-05-21T12:40:37.513Z,2.30
2023-05-21T12:43:06.324Z,1.90
2023-05-21T12:45:35.118Z,2.10
2023-05-21T12:48:03.888Z,2.10
2023-05-21T12:50:34.236Z,1.90
2023-05-21T12:53:02.724Z,1.80
2023-05-21T12:55:31.729Z,2.60
2023-05-21T12:58:09.096Z,2.20
2023-05-21T13:00:43.067Z,2.40
2023-05-21T13:03:11.600Z,2.10
2023-05-21T13:05:42.735Z,2.20
2023-05-21T13:08:11.470Z,2.50
2023-05-21T13:10:40.084Z,2.60
2023-05-21T13:15:36.697Z,3.00
2023-05-21T13:20:33.515Z,2.60
2023-05-21T13:23:03.505Z,2.90
2023-05-21T13:25:33.877Z,2.30
2023-05-21T13:28:05.285Z,2.50
2023-05-21T13:30:33.996Z,2.60
2023-05-21T13:33:03.091Z,2.70
2023-05-21T13:35:32.512Z,2.30
2023-05-21T13:38:00.833Z,2.70
2023-05-21T13:40:29.358Z,3.10
2023-05-21T13:42:57.836Z,2.50
2023-05-21T13:45:29.469Z,2.40
2023-05-21T13:47:58.525Z,2.60
2023-05-21T13:50:27.570Z,3.00
2023-05-21T13:52:55.959Z,2.50
2023-05-21T13:55:24.126Z,2.40
2023-05-21T13:57:52.403Z,3.40
2023-05-21T14:00:20.710Z,3.00
2023-05-21T14:02:50.547Z,2.20
2023-05-21T14:05:19.172Z,2.40
2023-05-21T14:07:48.592Z,3.50
2023-05-21T14:10:17.268Z,2.70
2023-05-21T14:15:16.300Z,2.60
2023-05-21T14:17:44.620Z,2.80
2023-05-21T14:20:13.242Z,2.20
2023-05-21T14:22:41.527Z,3.20
2023-05-21T14:25:09.937Z,2.60
2023-05-21T14:27:38.572Z,2.40
2023-05-21T14:30:07.803Z,2.20
2023-05-21T14:32:36.012Z,2.30
2023-05-21T14:35:05.083Z,2.10
2023-05-21T14:37:33.541Z,2.20
2023-05-21T14:40:02.225Z,2.20
2023-05-21T14:42:30.824Z,2.60
2023-05-21T14:47:27.363Z,2.00
2023-05-21T14:49:56.134Z,2.70
2023-05-21T14:52:24.304Z,2.00
2023-05-21T14:54:52.493Z,2.10
2023-05-21T14:57:21.319Z,2.60
2023-05-21T14:59:49.643Z,2.10
2023-05-21T15:02:17.843Z,2.90
2023-05-21T15:04:46.191Z,2.70
2023-05-21T15:07:14.681Z,2.20
2023-05-21T15:09:42.956Z,1.90
2023-05-21T15:12:11.340Z,2.20
2023-05-21T15:14:41.152Z,1.70
2023-05-21T15:17:09.424Z,2.10
2023-05-21T15:19:37.893Z,2.10
2023-05-21T15:22:06.202Z,2.00
2023-05-21T15:24:34.463Z,2.50
2023-05-21T15:27:02.842Z,2.00
2023-05-21T15:29:31.460Z,1.70
2023-05-21T15:32:01.376Z,2.40
2023-05-21T15:34:29.735Z,2.20
2023-05-21T15:36:58.507Z,2.50
2023-05-21T15:39:27.595Z,2.30
2023-05-21T15:41:55.976Z,2.30
2023-05-21T15:44:26.156Z,2.00
2023-05-21T15:46:55.052Z,2.10
2023-05-21T15:49:23.338Z,2.00
2023-05-21T15:51:51.852Z,2.40
2023-05-21T15:54:20.132Z,2.70
2023-05-21T15:56:48.507Z,2.00
2023-05-21T15:59:16.893Z,2.70
2023-05-21T16:01:45.371Z,2.20
2023-05-21T16:04:14.186Z,2.10
2023-05-21T16:06:42.741Z,2.40
2023-05-21T16:09:11.129Z,2.70
2023-05-21T16:11:39.697Z,2.10
2023-05-21T16:14:07.872Z,2.50
2023-05-21T16:16:36.181Z,2.20
2023-05-21T16:19:04.556Z,2.40
2023-05-21T16:21:33.250Z,2.40
2023-05-21T16:24:01.801Z,2.70
2023-05-21T16:26:30.388Z,2.60
2023-05-21T16:28:58.939Z,2.80
2023-05-21T16:31:27.585Z,2.40
2023-05-21T16:33:56.138Z,2.20
2023-05-21T16:36:24.307Z,2.60
2023-05-21T16:38:52.483Z,2.50
2023-05-21T16:41:22.001Z,2.40
2023-05-21T16:43:52.726Z,2.70
2023-05-21T16:46:21.879Z,2.10
2023-05-21T16:48:50.296Z,2.50
2023-05-21T16:51:18.576Z,2.40
2023-05-21T16:53:46.821Z,3.10
2023-05-21T16:56:15.045Z,2.50
2023-05-21T16:58:43.298Z,2.50
2023-05-21T17:01:11.659Z,2.60
2023-05-21T17:03:43.103Z,2.60
2023-05-21T17:06:11.830Z,2.60
2023-05-21T17:08:40.099Z,3.00
2023-05-21T17:11:08.916Z,2.70
2023-05-21T17:13:37.062Z,2.90
2023-05-21T17:16:05.363Z,2.60
2023-05-21T17:18:33.616Z,3.60
2023-05-21T17:21:02.002Z,4.10
2023-05-21T17:23:30.266Z,4.50
2023-05-21T17:25:58.548Z,4.60
2023-05-21T17:28:26.685Z,4.90
2023-05-21T17:30:55.008Z,4.70
2023-05-21T17:33:24.011Z,4.70
2023-05-21T17:35:52.275Z,4.80
2023-05-21T17:38:20.549Z,4.00
2023-05-21T17:40:51.685Z,3.20
2023-05-21T17:43:19.862Z,3.10
2023-05-21T17:45:48.138Z,3.60
2023-05-21T17:48:16.621Z,4.90
2023-05-21T17:50:47.151Z,5.30
2023-05-21T17:53:16.616Z,5.50
2023-05-21T17:55:44.825Z,5.00
2023-05-21T17:58:13.409Z,4.70
2023-05-21T18:00:41.750Z,3.10
2023-05-21T18:03:10.096Z,3.00
2023-05-21T18:05:38.611Z,3.20
2023-05-21T18:08:10.177Z,3.00
2023-05-21T18:10:38.579Z,3.00
2023-05-21T18:13:06.957Z,3.20
2023-05-21T18:15:35.953Z,3.60
2023-05-21T18:18:04.705Z,4.00
2023-05-21T18:20:34.277Z,4.60
2023-05-21T18:23:03.032Z,4.40
2023-05-21T18:25:31.727Z,3.90
2023-05-21T18:28:00.604Z,4.00
2023-05-21T18:30:28.886Z,4.20
2023-05-21T18:32:57.197Z,4.80
2023-05-21T18:35:27.481Z,4.00
2023-05-21T18:37:55.760Z,4.20
2023-05-21T18:40:26.098Z,3.40
2023-05-21T18:42:55.288Z,3.50
2023-05-21T18:45:23.664Z,3.60
2023-05-21T18:47:51.855Z,3.40
2023-05-21T18:50:20.732Z,3.30
2023-05-21T18:52:51.644Z,3.80
2023-05-21T18:55:20.664Z,3.00
2023-05-21T18:57:48.948Z,4.00
2023-05-21T19:00:17.730Z,3.60
2023-05-21T19:02:46.984Z,3.60
2023-05-21T19:07:43.898Z,3.20
2023-05-21T19:10:13.004Z,3.00
2023-05-21T19:12:42.551Z,2.70
2023-05-21T19:15:11.483Z,2.90
2023-05-21T19:17:40.213Z,3.10
2023-05-21T19:20:09.605Z,2.90
2023-05-21T19:22:38.096Z,2.90
2023-05-21T19:25:07.156Z,2.90
2023-05-21T19:27:35.627Z,2.70
2023-05-21T19:30:04.420Z,2.70
2023-05-21T19:32:32.899Z,2.80
2023-05-21T19:35:01.179Z,2.80
2023-05-21T19:37:29.455Z,2.70
2023-05-21T19:39:57.624Z,3.10
2023-05-21T19:42:25.801Z,2.90
2023-05-21T19:44:54.177Z,2.80
2023-05-21T19:47:22.895Z,3.40
2023-05-21T19:49:51.147Z,3.60
2023-05-21T19:52:19.421Z,2.80
2023-05-21T19:54:47.600Z,2.90
2023-05-21T19:57:16.280Z,2.90
2023-05-21T19:59:44.464Z,2.80
2023-05-21T20:02:15.279Z,3.80
2023-05-21T20:04:43.466Z,2.80
2023-05-21T20:07:11.651Z,2.90
2023-05-21T20:09:40.248Z,3.20
2023-05-21T20:12:09.631Z,2.70
2023-05-21T20:17:06.466Z,2.70
2023-05-21T20:19:36.179Z,2.70
2023-05-21T20:22:05.602Z,3.40
2023-05-21T20:24:34.093Z,4.00
2023-05-21T20:27:02.382Z,2.50
2023-05-21T20:29:30.630Z,2.60
2023-05-21T20:31:59.212Z,3.20
2023-05-21T20:34:30.352Z,2.60
2023-05-21T20:36:58.739Z,2.40
2023-05-21T20:39:28.851Z,2.70
2023-05-21T20:41:58.369Z,2.70
2023-05-21T20:44:27.754Z,3.40
2023-05-21T20:46:56.034Z,2.30
2023-05-21T20:49:25.086Z,2.40
2023-05-21T20:51:54.156Z,2.30
2023-05-21T20:54:25.596Z,2.30
2023-05-21T20:56:55.387Z,2.60
2023-05-21T20:59:23.667Z,2.80
2023-05-21T21:01:52.710Z,2.60
2023-05-21T21:04:21.034Z,2.00
2023-05-21T21:06:50.553Z,2.30
2023-05-21T21:09:19.227Z,2.50
2023-05-21T21:11:47.508Z,2.60
2023-05-21T21:14:15.781Z,2.60
2023-05-21T21:16:44.206Z,2.40
2023-05-21T21:19:12.775Z,2.50
2023-05-21T21:21:41.441Z,2.40
2023-05-21T21:24:09.625Z,2.80
2023-05-21T21:26:37.782Z,3.40
2023-05-21T21:29:06.094Z,2.90
2023-05-21T21:31:34.218Z,2.70
2023-05-21T21:34:02.561Z,3.20
2023-05-21T21:36:31.604Z,3.20
2023-05-21T21:38:59.783Z,3.10
2023-05-21T21:41:29.188Z,3.10
2023-05-21T21:46:26.524Z,3.20
2023-05-21T21:48:54.731Z,3.50
2023-05-21T21:51:23.662Z,2.60
2023-05-21T21:53:52.101Z,3.00
2023-05-21T21:56:20.277Z,2.90
2023-05-21T21:58:48.329Z,3.80
2023-05-21T22:01:16.491Z,3.50
2023-05-21T22:03:45.007Z,3.20
2023-05-21T22:06:13.186Z,3.50
2023-05-21T22:08:41.605Z,3.40
2023-05-21T22:11:09.935Z,4.10
2023-05-21T22:13:38.725Z,4.40
2023-05-21T22:16:07.926Z,3.50
2023-05-21T22:18:40.441Z,3.80
2023-05-21T22:21:14.514Z,3.90
2023-05-21T22:23:42.792Z,3.50
2023-05-21T22:26:11.067Z,3.10
2023-05-21T22:28:39.653Z,3.00
2023-05-21T22:31:08.143Z,3.40
2023-05-21T22:33:36.935Z,3.50
2023-05-21T22:36:05.973Z,4.00
2023-05-21T22:38:34.298Z,3.00
2023-05-21T22:41:03.772Z,3.70
2023-05-21T22:43:34.376Z,3.60
2023-05-21T22:46:03.185Z,3.30
2023-05-21T22:48:31.501Z,3.70
2023-05-21T22:51:02.029Z,3.80
2023-05-21T22:53:32.395Z,3.00
2023-05-21T22:56:01.478Z,3.00
2023-05-21T22:58:29.929Z,3.30
2023-05-21T23:00:58.309Z,3.20
2023-05-21T23:03:27.022Z,3.50
2023-05-21T23:05:55.372Z,3.20
2023-05-21T23:08:23.750Z,3.60
2023-05-21T23:10:51.923Z,3.90
2023-05-21T23:13:20.195Z,4.00
2023-05-21T23:15:48.678Z,3.80
2023-05-21T23:18:17.572Z,3.50
2023-05-21T23:20:45.978Z,3.30
2023-05-21T23:23:14.224Z,3.70
2023-05-21T23:25:42.406Z,4.80
2023-05-21T23:28:10.986Z,4.30
2023-05-21T23:30:39.566Z,3.40
2023-05-21T23:33:08.361Z,4.10
2023-05-21T23:35:36.838Z,3.50
2023-05-21T23:38:05.122Z,4.00
2023-05-21T23:40:33.388Z,4.00
2023-05-21T23:43:01.785Z,4.10
2023-05-21T23:45:29.893Z,3.20
2023-05-21T23:47:58.282Z,3.40
2023-05-21T23:50:26.374Z,3.80
2023-05-21T23:52:54.783Z,3.50
2023-05-21T23:55:23.079Z,3.90
2023-05-21T23:57:51.575Z,3.70
